DBBB/COO METAR and TAF weather

Enter ICAO airport designator
Station Type Date Time Source
DBBB METAR 2020/02/21 15:00 UTC NOAA

DBBB 211500Z 19010KT 9000 FEW013 33/27 Q1006 NOSIG


Station Type Date Time Source
DBBB Decoded METAR 2020/02/21 15:00 UTC NOAA

Cotonou, Benin (DBBB) 06-21N 002-23E 9M
Feb 21, 2020 - 10:00 AM EST / 2020.02.21 1500 UTC
Wind: from the S (190 degrees) at 12 MPH (10 KT):0
Visibility: 5 mile(s):0
Sky conditions: mostly clear
Temperature: 91 F (33 C)
Heat index: 109.0 F (42.8 C):1
Dew Point: 80 F (27 C)
Relative Humidity: 70%
Pressure (altimeter): 29.71 in. Hg (1006 hPa)
ob: DBBB 211500Z 19010KT 9000 FEW013 33/27 Q1006 NOSIG
cycle: 15

Station Type Date Time Source
DBBB TAF 2020/02/21 12:21 UTC NOAA

TAF TAF DBBB 211100Z 2112/2218 20010KT 8000 SCT012
TEMPO 2204/2210 VRB03KT 4000 BR

Example: see airport list